Time;durP1;ratioP1;P1;durP2;ratioP2;P2;SDS_P1;SDS_P2;PMS_P1;PMS_P2;Temp;Humidity;BMP_temperature;BMP_pressure;BME280_temperature;BME280_humidity;BME280_pressure;Samples;Min_cycle;Max_cycle;Signal;HPM_P1;HPM_P2
2024/03/11 00:02:12;;;;;;;;;;;;;;;;;;;;;
2024/03/11 00:08:37;;;;;;;;;;;;;;;;;;;;;
2024/03/11 00:11:48;;;;;;;;;;;;;;;;;;;;;
2024/03/11 00:15:07;;;;;;;;;;;;;;;;;;;;;
2024/03/11 00:21:40;;;;;;;;;;;;;;;;;;;;;
2024/03/11 00:24:39;;;;;;;;;;;;;;;;;;;;;
2024/03/11 00:27:59;;;;;;;;;;;;;;;;;;;;;
2024/03/11 00:30:55;;;;;;;;;;;;;;;;;;;;;
2024/03/11 00:33:48;;;;;;;;;;;;;;;;;;;;;
2024/03/11 00:39:36;;;;;;;;;;;;;;;;;;;;;
2024/03/11 00:42:32;;;;;;;;;;;;;;;;;;;;;
2024/03/11 00:44:56;;;;;;;;;0.00;0.00;;;;;12.09;100.00;99831.25;4677458;29;45331;-90
2024/03/11 00:47:40;;;;;;;;;;;;;;;;;;;;;
2024/03/11 00:50:20;;;;;;;;;;;;;;;;;;;;;
2024/03/11 00:56:53;;;;;;;;;;;;;;;;;;;;;
2024/03/11 00:59:54;;;;;;;;;;;;;;;;;;;;;
2024/03/11 01:06:13;;;;;;;;;;;;;;;;;;;;;
2024/03/11 01:12:02;;;;;;;;;;;;;;;;;;;;;
2024/03/11 01:14:40;;;;;;;;;;;;;;;;;;;;;
2024/03/11 01:17:37;;;;;;;;;;;;;;;;;;;;;
2024/03/11 01:20:29;;;;;;;;;;;;;;;;;;;;;
2024/03/11 01:23:33;;;;;;;;;;;;;;;;;;;;;
2024/03/11 01:29:22;;;;;;;;;0.00;0.00;;;;;11.56;100.00;99843.34;4748365;29;46123;-90
2024/03/11 01:32:32;;;;;;;;;;;;;;;;;;;;;
2024/03/11 01:35:40;;;;;;;;;;;;;;;;;;;;;
2024/03/11 01:38:34;;;;;;;;;;;;;;;;;;;;;
2024/03/11 01:41:36;;;;;;;;;0.00;0.00;;;;;11.54;100.00;99853.81;4712709;29;70549;-91
2024/03/11 01:44:43;;;;;;;;;0.00;0.00;;;;;11.55;100.00;99855.53;4769853;29;46808;-90
2024/03/11 01:50:39;;;;;;;;;;;;;;;;;;;;;
2024/03/11 01:53:37;;;;;;;;;;;;;;;;;;;;;
2024/03/11 01:56:22;;;;;;;;;;;;;;;;;;;;;
2024/03/11 01:59:21;;;;;;;;;;;;;;;;;;;;;
2024/03/11 02:02:23;;;;;;;;;;;;;;;;;;;;;
2024/03/11 02:05:19;;;;;;;;;;;;;;;;;;;;;
2024/03/11 02:08:38;;;;;;;;;;;;;;;;;;;;;
2024/03/11 02:11:33;;;;;;;;;0.00;0.00;;;;;11.23;100.00;99878.69;4719138;30;73239;-91
2024/03/11 02:17:48;;;;;;;;;;;;;;;;;;;;;
2024/03/11 02:20:57;;;;;;;;;;;;;;;;;;;;;
2024/03/11 02:24:20;;;;;;;;;;;;;;;;;;;;;
2024/03/11 02:30:19;;;;;;;;;0.00;0.00;;;;;11.35;100.00;99884.28;4614708;30;45871;-91
2024/03/11 02:33:32;;;;;;;;;;;;;;;;;;;;;
2024/03/11 02:36:40;;;;;;;;;;;;;;;;;;;;;
2024/03/11 02:42:47;;;;;;;;;;;;;;;;;;;;;
2024/03/11 02:45:46;;;;;;;;;;;;;;;;;;;;;
2024/03/11 02:48:39;;;;;;;;;;;;;;;;;;;;;
2024/03/11 02:51:35;;;;;;;;;;;;;;;;;;;;;
2024/03/11 02:55:17;;;;;;;;;;;;;;;;;;;;;
2024/03/11 02:57:46;;;;;;;;;;;;;;;;;;;;;
2024/03/11 03:07:42;;;;;;;;;;;;;;;;;;;;;
2024/03/11 03:10:41;;;;;;;;;;;;;;;;;;;;;
2024/03/11 03:13:40;;;;;;;;;;;;;;;;;;;;;
2024/03/11 03:16:28;;;;;;;;;;;;;;;;;;;;;
2024/03/11 03:22:35;;;;;;;;;;;;;;;;;;;;;
2024/03/11 03:25:31;;;;;;;;;;;;;;;;;;;;;
2024/03/11 03:29:04;;;;;;;;;0.00;0.00;;;;;11.91;100.00;99922.50;4717472;30;68906;-91
2024/03/11 03:31:45;;;;;;;;;;;;;;;;;;;;;
2024/03/11 03:34:26;;;;;;;;;;;;;;;;;;;;;
2024/03/11 03:40:03;;;;;;;;;;;;;;;;;;;;;
2024/03/11 03:43:05;;;;;;;;;0.00;0.00;;;;;11.93;100.00;99930.28;4705618;30;68878;-91
2024/03/11 03:49:19;;;;;;;;;;;;;;;;;;;;;
2024/03/11 03:51:54;;;;;;;;;;;;;;;;;;;;;
2024/03/11 03:54:45;;;;;;;;;0.00;0.00;;;;;12.00;100.00;99927.28;4812359;29;70621;-91
2024/03/11 03:57:32;;;;;;;;;;;;;;;;;;;;;
2024/03/11 04:00:38;;;;;;;;;;;;;;;;;;;;;
2024/03/11 04:03:34;;;;;;;;;;;;;;;;;;;;;
2024/03/11 04:06:18;;;;;;;;;;;;;;;;;;;;;
2024/03/11 04:12:29;;;;;;;;;;;;;;;;;;;;;
2024/03/11 04:15:16;;;;;;;;;;;;;;;;;;;;;
2024/03/11 04:17:54;;;;;;;;;;;;;;;;;;;;;
2024/03/11 04:20:39;;;;;;;;;;;;;;;;;;;;;
2024/03/11 04:23:41;;;;;;;;;;;;;;;;;;;;;
2024/03/11 04:26:16;;;;;;;;;0.00;0.00;;;;;12.03;100.00;99956.75;4681273;30;70006;-89
2024/03/11 04:29:09;;;;;;;;;;;;;;;;;;;;;
2024/03/11 04:32:04;;;;;;;;;;;;;;;;;;;;;
2024/03/11 04:35:12;;;;;;;;;5.00;5.00;;;;;12.03;100.00;99954.16;4700649;30;71793;-90
2024/03/11 04:38:31;;;;;;;;;;;;;;;;;;;;;
2024/03/11 04:41:16;;;;;;;;;;;;;;;;;;;;;
2024/03/11 04:43:41;;;;;;;;;;;;;;;;;;;;;
2024/03/11 04:46:34;;;;;;;;;;;;;;;;;;;;;
2024/03/11 04:49:13;;;;;;;;;;;;;;;;;;;;;
2024/03/11 04:54:35;;;;;;;;;0.00;0.00;;;;;11.87;100.00;99960.06;4708166;30;45630;-89
2024/03/11 04:57:22;;;;;;;;;;;;;;;;;;;;;
2024/03/11 04:59:57;;;;;;;;;;;;;;;;;;;;;
2024/03/11 05:02:36;;;;;;;;;;;;;;;;;;;;;
2024/03/11 05:05:20;;;;;;;;;;;;;;;;;;;;;
2024/03/11 05:13:52;;;;;;;;;;;;;;;;;;;;;
2024/03/11 05:19:30;;;;;;;;;0.00;0.00;;;;;12.03;100.00;99993.28;4760894;29;45376;-90
2024/03/11 05:22:23;;;;;;;;;;;;;;;;;;;;;
2024/03/11 05:25:05;;;;;;;;;;;;;;;;;;;;;
2024/03/11 05:27:49;;;;;;;;;;;;;;;;;;;;;
2024/03/11 05:30:38;;;;;;;;;;;;;;;;;;;;;
2024/03/11 05:33:43;;;;;;;;;;;;;;;;;;;;;
2024/03/11 05:36:23;;;;;;;;;;;;;;;;;;;;;
2024/03/11 05:39:05;;;;;;;;;;;;;;;;;;;;;
2024/03/11 05:42:08;;;;;;;;;;;;;;;;;;;;;
2024/03/11 05:44:31;;;;;;;;;0.00;0.00;;;;;11.97;100.00;99986.59;4742525;29;45586;-89
2024/03/11 05:47:20;;;;;;;;;;;;;;;;;;;;;
2024/03/11 05:50:07;;;;;;;;;;;;;;;;;;;;;
2024/03/11 05:56:02;;;;;;;;;0.00;0.00;;;;;12.03;100.00;99996.72;4803340;29;45442;-90
2024/03/11 05:58:48;;;;;;;;;;;;;;;;;;;;;
2024/03/11 06:01:42;;;;;;;;;;;;;;;;;;;;;
2024/03/11 06:04:20;;;;;;;;;;;;;;;;;;;;;
2024/03/11 06:07:11;;;;;;;;;0.00;0.00;;;;;11.97;100.00;100008.28;4808396;29;69432;-90
2024/03/11 06:09:52;;;;;;;;;;;;;;;;;;;;;
2024/03/11 06:12:33;;;;;;;;;;;;;;;;;;;;;
2024/03/11 06:15:20;;;;;;;;;;;;;;;;;;;;;
2024/03/11 06:21:07;;;;;;;;;;;;;;;;;;;;;
2024/03/11 06:23:49;;;;;;;;;;;;;;;;;;;;;
2024/03/11 06:26:54;;;;;;;;;;;;;;;;;;;;;
2024/03/11 06:29:53;;;;;;;;;;;;;;;;;;;;;
2024/03/11 06:32:30;;;;;;;;;;;;;;;;;;;;;
2024/03/11 06:34:56;;;;;;;;;0.00;0.00;;;;;11.90;100.00;100052.97;4804376;29;75273;-84
2024/03/11 06:37:21;;;;;;;;;0.00;0.00;;;;;11.90;100.00;100052.97;4814067;29;45322;-83
2024/03/11 06:39:47;;;;;;;;;0.00;0.00;;;;;11.88;100.00;100060.00;4822320;29;45824;-84
2024/03/11 06:42:12;;;;;;;;;0.00;0.00;;;;;11.83;100.00;100060.22;4788479;29;53019;-84
2024/03/11 06:44:37;;;;;;;;;0.00;0.00;;;;;11.81;100.00;100065.50;4790823;29;46301;-84
2024/03/11 06:47:04;;;;;;;;;0.00;0.00;;;;;11.64;100.00;100078.41;4793525;29;56654;-85
2024/03/11 06:49:32;;;;;;;;;0.00;0.00;;;;;11.60;100.00;100069.88;4778387;29;45201;-86
2024/03/11 06:51:59;;;;;;;;;0.00;0.00;;;;;11.86;100.00;100077.47;4793934;29;45392;-85
2024/03/11 06:54:25;;;;;;;;;0.00;0.00;;;;;11.90;100.00;100076.44;4794395;29;46444;-86
2024/03/11 06:56:51;;;;;;;;;3.00;3.00;;;;;12.00;100.00;100086.41;4809776;29;45364;-86
2024/03/11 06:59:16;;;;;;;;;0.00;0.00;;;;;12.03;100.00;100084.56;4796027;29;45346;-85
2024/03/11 07:01:41;;;;;;;;;0.00;0.00;;;;;12.10;100.00;100094.66;4827977;29;45314;-84
2024/03/11 07:04:08;;;;;;;;;0.00;0.00;;;;;12.21;100.00;100107.22;4794558;29;47195;-87
2024/03/11 07:06:34;;;;;;;;;0.00;0.00;;;;;12.25;100.00;100105.31;4811389;29;45280;-86
2024/03/11 07:09:01;;;;;;;;;0.00;0.00;;;;;12.23;100.00;100101.94;4795761;29;45354;-85
2024/03/11 07:11:29;;;;;;;;;0.00;0.00;;;;;12.27;100.00;100106.09;4794363;29;45561;-86
2024/03/11 07:13:54;;;;;;;;;0.00;0.00;;;;;12.35;100.00;100103.94;4807471;29;47018;-82
2024/03/11 07:16:21;;;;;;;;;0.00;0.00;;;;;12.46;100.00;100104.31;4826282;29;62341;-83
2024/03/11 07:18:53;;;;;;;;;0.00;0.00;;;;;12.47;100.00;100118.22;4816474;29;45352;-83
2024/03/11 07:21:18;;;;;;;;;0.00;0.00;;;;;12.51;100.00;100118.00;4826985;29;45470;-81
2024/03/11 07:23:48;;;;;;;;;0.00;0.00;;;;;12.52;100.00;100124.06;4826339;29;49849;-82
2024/03/11 07:26:14;;;;;;;;;0.00;0.00;;;;;12.58;100.00;100115.94;4811031;29;45500;-82
2024/03/11 07:28:39;;;;;;;;;0.00;0.00;;;;;12.64;100.00;100126.09;4795629;29;45557;-82
2024/03/11 07:31:05;;;;;;;;;0.00;0.00;;;;;12.90;100.00;100129.22;4825716;29;45391;-81
2024/03/11 07:33:30;;;;;;;;;0.00;0.00;;;;;12.77;100.00;100123.75;4805237;29;47263;-82
2024/03/11 07:35:57;;;;;;;;;0.00;0.00;;;;;12.84;100.00;100137.38;4810774;29;60562;-81
2024/03/11 07:38:23;;;;;;;;;0.00;0.00;;;;;12.94;100.00;100131.59;4826110;29;45517;-82
2024/03/11 07:40:49;;;;;;;;;0.00;0.00;;;;;12.88;100.00;100142.34;4824396;29;45391;-82
2024/03/11 07:43:15;;;;;;;;;0.00;0.00;;;;;12.91;100.00;100142.22;4809280;29;46277;-82
2024/03/11 07:45:40;;;;;;;;;0.00;0.00;;;;;12.91;100.00;100150.06;4826688;29;45346;-81
2024/03/11 07:48:09;;;;;;;;;0.00;0.00;;;;;12.96;100.00;100153.31;4807821;29;45502;-82
2024/03/11 07:50:35;;;;;;;;;0.00;0.00;;;;;12.96;100.00;100148.06;4821757;29;45655;-83
2024/03/11 07:53:01;;;;;;;;;0.00;0.00;;;;;13.02;100.00;100152.16;4823675;29;45463;-83
2024/03/11 07:55:28;;;;;;;;;0.00;0.00;;;;;13.10;100.00;100154.41;4819672;29;45408;-82
2024/03/11 07:57:55;;;;;;;;;0.00;0.00;;;;;13.15;100.00;100165.47;4808920;29;45795;-82
2024/03/11 08:00:27;;;;;;;;;0.00;0.00;;;;;13.20;100.00;100160.84;4806069;29;45515;-80
2024/03/11 08:02:54;;;;;;;;;0.00;0.00;;;;;13.23;100.00;100168.56;4821668;29;46694;-82
2024/03/11 08:05:21;;;;;;;;;0.00;0.00;;;;;13.30;100.00;100171.72;4814875;29;45533;-82
2024/03/11 08:07:47;;;;;;;;;0.00;0.00;;;;;13.35;100.00;100172.34;4820818;29;45703;-82
2024/03/11 08:10:14;;;;;;;;;0.00;0.00;;;;;13.41;100.00;100165.97;4825962;29;45237;-82
2024/03/11 08:12:44;;;;;;;;;0.00;0.00;;;;;13.47;100.00;100174.38;4798249;29;46430;-82
2024/03/11 08:15:12;;;;;;;;;0.00;0.00;;;;;13.53;100.00;100184.50;4806790;29;45455;-81
2024/03/11 08:17:49;;;;;;;;;0.00;0.00;;;;;13.59;100.00;100190.34;4822239;29;45987;-81
2024/03/11 08:20:18;;;;;;;;;0.00;0.00;;;;;13.64;100.00;100193.59;4812389;29;45268;-82
2024/03/11 08:22:45;;;;;;;;;0.00;0.00;;;;;13.69;100.00;100191.59;4825503;29;46629;-82
2024/03/11 08:25:11;;;;;;;;;0.00;0.00;;;;;13.78;100.00;100198.97;4809604;29;45408;-82
2024/03/11 08:27:40;;;;;;;;;0.00;0.00;;;;;13.88;100.00;100200.19;4808832;29;45428;-81
2024/03/11 08:30:07;;;;;;;;;0.00;0.00;;;;;13.96;100.00;100197.19;4825443;29;45479;-82
2024/03/11 08:32:33;;;;;;;;;0.00;0.00;;;;;14.00;100.00;100195.25;4825273;29;46731;-82
2024/03/11 08:34:59;;;;;;;;;0.00;0.00;;;;;13.99;100.00;100202.25;4825294;29;45524;-82
2024/03/11 08:37:24;;;;;;;;;0.00;0.00;;;;;14.04;100.00;100209.84;4824872;29;45479;-82
2024/03/11 08:39:51;;;;;;;;;0.00;0.00;;;;;14.03;100.00;100213.41;4808845;29;45484;-82
2024/03/11 08:42:18;;;;;;;;;0.00;0.00;;;;;14.14;100.00;100214.53;4824835;29;45760;-80
2024/03/11 08:44:44;;;;;;;;;0.00;0.00;;;;;14.31;100.00;100215.44;4809254;29;45487;-81
2024/03/11 08:47:11;;;;;;;;;0.00;0.00;;;;;14.44;100.00;100224.31;4825301;29;45303;-82
2024/03/11 08:49:40;;;;;;;;;0.00;0.00;;;;;14.46;100.00;100227.72;4808160;29;45420;-82
2024/03/11 08:52:08;;;;;;;;;0.00;0.00;;;;;14.49;100.00;100229.34;4808352;29;46648;-82
2024/03/11 08:54:35;;;;;;;;;0.00;0.00;;;;;14.60;100.00;100228.75;4809666;29;45511;-81
2024/03/11 08:57:03;;;;;;;;;0.00;0.00;;;;;14.65;100.00;100234.63;4822394;29;45839;-82
2024/03/11 08:59:30;;;;;;;;;0.00;0.00;;;;;14.71;100.00;100232.53;4824727;29;45402;-82
2024/03/11 09:01:57;;;;;;;;;0.00;0.00;;;;;14.81;100.00;100234.63;4801509;29;45555;-82
2024/03/11 09:04:26;;;;;;;;;0.00;0.00;;;;;14.86;100.00;100236.06;4824189;29;45445;-80
2024/03/11 09:06:54;;;;;;;;;0.00;0.00;;;;;15.03;100.00;100235.16;4823855;29;45265;-82
2024/03/11 09:09:24;;;;;;;;;0.00;0.00;;;;;15.12;100.00;100246.91;4824896;29;45391;-82
2024/03/11 09:11:56;;;;;;;;;0.00;0.00;;;;;15.28;100.00;100250.38;4824621;29;45673;-82
2024/03/11 09:14:25;;;;;;;;;0.00;0.00;;;;;15.46;100.00;100245.00;4824971;29;45373;-82
2024/03/11 09:16:55;;;;;;;;;0.00;0.00;;;;;15.49;100.00;100253.53;4824552;29;45458;-82
2024/03/11 09:19:22;;;;;;;;;0.00;0.00;;;;;15.53;100.00;100250.75;4824416;29;45360;-82
2024/03/11 09:21:49;;;;;;;;;0.00;0.00;;;;;15.57;100.00;100247.84;4824403;29;46178;-82
2024/03/11 09:24:16;;;;;;;;;0.00;0.00;;;;;15.67;100.00;100254.25;4824955;29;45271;-81
2024/03/11 09:26:41;;;;;;;;;0.00;0.00;;;;;15.62;100.00;100256.31;4808320;29;45431;-82
2024/03/11 09:29:09;;;;;;;;;0.00;0.00;;;;;15.64;100.00;100264.94;4807817;29;46508;-82
2024/03/11 09:31:35;;;;;;;;;0.00;0.00;;;;;15.74;100.00;100264.44;4824431;29;45732;-81
2024/03/11 09:34:02;;;;;;;;;0.00;0.00;;;;;15.86;100.00;100263.69;4824395;29;45688;-82
2024/03/11 09:36:28;;;;;;;;;0.00;0.00;;;;;15.95;100.00;100272.81;4792954;29;45768;-82
2024/03/11 09:38:53;;;;;;;;;0.00;0.00;;;;;15.90;100.00;100272.22;4824577;29;45613;-81
2024/03/11 09:41:20;;;;;;;;;0.00;0.00;;;;;15.83;100.00;100259.47;4823821;29;61231;-82
2024/03/11 09:43:48;;;;;;;;;0.00;0.00;;;;;15.91;100.00;100266.06;4824698;29;45336;-83
2024/03/11 09:46:20;;;;;;;;;0.00;0.00;;;;;15.90;100.00;100270.47;4824282;29;45344;-82
2024/03/11 09:48:53;;;;;;;;;0.00;0.00;;;;;15.83;100.00;100269.97;4824077;29;45421;-82
2024/03/11 09:51:21;;;;;;;;;0.00;0.00;;;;;15.70;100.00;100274.22;4788986;29;47291;-82
2024/03/11 09:53:52;;;;;;;;;0.00;0.00;;;;;15.64;100.00;100279.84;4806379;29;45330;-83
2024/03/11 09:56:20;;;;;;;;;0.00;0.00;;;;;15.61;100.00;100275.59;4804936;29;45405;-82
2024/03/11 09:58:50;;;;;;;;;0.00;0.00;;;;;15.55;100.00;100277.72;4806040;29;45590;-82
2024/03/11 10:01:16;;;;;;;;;0.00;0.00;;;;;15.49;100.00;100277.13;4811985;29;46751;-83
2024/03/11 10:03:42;;;;;;;;;0.00;0.00;;;;;15.56;100.00;100282.03;4789648;29;45607;-82
2024/03/11 10:06:07;;;;;;;;;0.00;0.00;;;;;15.58;100.00;100275.78;4821873;29;45355;-83
2024/03/11 10:08:35;;;;;;;;;0.00;0.00;;;;;15.60;100.00;100280.91;4789804;29;45510;-82
2024/03/11 10:11:15;;;;;;;;;0.00;0.00;;;;;15.72;100.00;100287.25;4791915;29;47945;-82
2024/03/11 10:13:41;;;;;;;;;0.00;0.00;;;;;15.93;100.00;100293.06;4801796;29;45403;-82
2024/03/11 10:16:24;;;;;;;;;0.00;0.00;;;;;16.14;100.00;100294.44;4823160;29;45309;-83
2024/03/11 10:19:12;;;;;;;;;0.00;0.00;;;;;16.34;100.00;100295.03;4789518;29;45378;-82
2024/03/11 10:21:42;;;;;;;;;0.00;0.00;;;;;16.42;100.00;100292.78;4809042;29;45417;-82
2024/03/11 10:24:14;;;;;;;;;0.00;0.00;;;;;16.55;100.00;100293.72;4809219;29;45340;-82
2024/03/11 10:26:42;;;;;;;;;0.00;0.00;;;;;16.69;100.00;100290.25;4793836;29;45492;-82
2024/03/11 10:29:11;;;;;;;;;0.00;0.00;;;;;16.83;100.00;100292.91;4793139;29;45448;-82
2024/03/11 10:31:36;;;;;;;;;0.00;0.00;;;;;16.80;100.00;100293.06;4790197;29;46847;-82
2024/03/11 10:34:21;;;;;;;;;0.00;0.00;;;;;16.86;100.00;100293.66;4791051;29;45541;-83
2024/03/11 10:36:47;;;;;;;;;0.00;0.00;;;;;16.95;100.00;100298.34;4790916;29;46132;-82
2024/03/11 10:41:50;;;;;;;;;0.00;0.00;;;;;17.12;100.00;100300.75;4790755;29;45223;-83
2024/03/11 10:44:18;;;;;;;;;0.00;0.00;;;;;17.22;100.00;100288.72;4790946;29;45429;-83
2024/03/11 10:46:43;;;;;;;;;0.00;0.00;;;;;17.45;100.00;100296.06;4790480;29;45443;-82
2024/03/11 10:49:12;;;;;;;;;0.00;0.00;;;;;17.59;100.00;100296.84;4774182;29;45447;-83
2024/03/11 10:51:43;;;;;;;;;0.00;0.00;;;;;17.70;100.00;100303.19;4789926;29;45828;-82
2024/03/11 10:54:22;;;;;;;;;0.00;0.00;;;;;17.82;100.00;100305.03;4808560;29;45391;-82
2024/03/11 10:56:51;;;;;;;;;0.00;0.00;;;;;17.87;100.00;100296.88;4778675;29;45362;-83
2024/03/11 10:59:16;;;;;;;;;0.00;0.00;;;;;18.15;100.00;100301.97;4790456;29;45553;-83
2024/03/11 11:01:47;;;;;;;;;0.00;0.00;;;;;18.14;100.00;100307.31;4773806;29;47193;-82
2024/03/11 11:04:13;;;;;;;;;0.00;0.00;;;;;18.04;100.00;100309.75;4774094;29;45405;-83
2024/03/11 11:06:48;;;;;;;;;0.00;0.00;;;;;17.94;100.00;100314.78;4793252;29;45285;-83
2024/03/11 11:09:13;;;;;;;;;0.00;0.00;;;;;17.77;100.00;100315.88;4791907;29;45326;-84
2024/03/11 11:11:41;;;;;;;;;4.00;4.00;;;;;17.61;100.00;100318.66;4805654;29;45970;-83
2024/03/11 11:14:11;;;;;;;;;0.00;0.00;;;;;17.37;100.00;100315.81;4806066;29;45268;-82
2024/03/11 11:16:38;;;;;;;;;0.00;0.00;;;;;17.13;100.00;100317.38;4789796;29;45492;-83
2024/03/11 11:19:04;;;;;;;;;0.00;0.00;;;;;17.08;100.00;100316.81;4790158;29;45675;-82
2024/03/11 11:21:31;;;;;;;;;0.75;0.75;;;;;17.14;100.00;100321.69;4772987;29;64973;-83
2024/03/11 11:24:26;;;;;;;;;0.00;0.00;;;;;17.15;100.00;100326.84;4773983;29;45466;-83
2024/03/11 11:26:59;;;;;;;;;0.00;0.00;;;;;17.27;100.00;100327.00;4790051;29;45248;-82
2024/03/11 11:29:29;;;;;;;;;0.00;0.00;;;;;17.54;100.00;100321.78;4791782;29;45265;-83
2024/03/11 11:32:13;;;;;;;;;0.00;0.00;;;;;17.85;100.00;100332.97;4807609;29;47018;-83
2024/03/11 11:34:45;;;;;;;;;0.00;0.00;;;;;18.23;100.00;100325.16;4808069;29;45560;-83
2024/03/11 11:37:19;;;;;;;;;0.00;0.00;;;;;18.64;100.00;100331.19;4808090;29;45232;-83
2024/03/11 11:39:45;;;;;;;;;0.00;0.00;;;;;18.91;100.00;100324.00;4807938;29;45519;-84
2024/03/11 11:42:40;;;;;;;;;1.00;0.00;;;;;19.12;100.00;100331.34;4807864;29;46333;-82
2024/03/11 11:45:11;;;;;;;;;0.00;0.00;;;;;19.21;100.00;100332.50;4807676;29;45253;-83
2024/03/11 11:47:37;;;;;;;;;0.00;0.00;;;;;19.27;100.00;100337.31;4807759;29;45562;-82
2024/03/11 11:50:03;;;;;;;;;0.00;0.00;;;;;19.24;100.00;100350.72;4780298;29;45606;-83
2024/03/11 11:52:28;;;;;;;;;0.00;0.00;;;;;19.16;100.00;100343.38;4794022;29;46276;-83
2024/03/11 11:54:55;;;;;;;;;0.00;0.00;;;;;18.82;100.00;100340.47;4826164;29;45300;-83
2024/03/11 11:57:24;;;;;;;;;0.00;0.00;;;;;18.51;100.00;100352.25;4820751;29;45686;-83
2024/03/11 12:00:00;;;;;;;;;0.00;0.00;;;;;18.39;100.00;100346.03;4809991;29;45414;-81
2024/03/11 12:02:29;;;;;;;;;0.00;0.00;;;;;18.10;100.00;100348.00;4820314;29;45482;-83
2024/03/11 12:04:57;;;;;;;;;0.00;0.00;;;;;17.93;100.00;100364.91;4825929;29;45488;-82
2024/03/11 12:07:24;;;;;;;;;0.00;0.00;;;;;17.79;100.00;100361.38;4825938;29;45375;-82
2024/03/11 12:09:51;;;;;;;;;0.00;0.00;;;;;17.41;100.00;100363.81;4825981;29;45784;-82
2024/03/11 12:12:32;;;;;;;;;0.00;0.00;;;;;17.35;100.00;100366.84;4804065;29;45692;-83
2024/03/11 12:14:58;;;;;;;;;0.00;0.00;;;;;17.46;100.00;100367.00;4817114;29;45591;-84
2024/03/11 12:17:29;;;;;;;;;0.00;0.00;;;;;17.67;100.00;100367.41;4810018;29;45401;-84
2024/03/11 12:20:15;;;;;;;;;0.50;0.00;;;;;18.08;100.00;100374.44;4811510;29;45376;-83
2024/03/11 12:22:41;;;;;;;;;0.00;0.00;;;;;18.90;100.00;100364.50;4822053;29;46299;-82
2024/03/11 12:25:08;;;;;;;;;0.00;0.00;;;;;20.45;100.00;100364.75;4807563;29;45451;-82
2024/03/11 12:27:34;;;;;;;;;0.00;0.00;;;;;22.01;100.00;100366.56;4820134;29;45477;-82
2024/03/11 12:30:05;;;;;;;;;0.00;0.00;;;;;22.79;100.00;100367.94;4795653;29;45364;-84
2024/03/11 12:32:31;;;;;;;;;0.00;0.00;;;;;22.49;100.00;100375.84;4823520;29;46292;-84
2024/03/11 12:34:59;;;;;;;;;0.00;0.00;;;;;21.84;100.00;100383.84;4823813;29;55952;-83
2024/03/11 12:37:26;;;;;;;;;0.00;0.00;;;;;20.94;100.00;100386.59;4792453;29;45545;-83
2024/03/11 12:39:51;;;;;;;;;0.00;0.00;;;;;20.17;100.00;100413.56;4816407;29;45510;-83
2024/03/11 12:42:27;;;;;;;;;0.00;0.00;;;;;19.10;100.00;100410.59;4814365;29;45925;-82
2024/03/11 12:44:54;;;;;;;;;0.00;0.00;;;;;18.38;100.00;100402.31;4822312;29;45517;-82
2024/03/11 12:47:20;;;;;;;;;0.00;0.00;;;;;17.99;100.00;100412.72;4820384;29;45428;-82
2024/03/11 12:49:46;;;;;;;;;0.00;0.00;;;;;17.73;100.00;100411.75;4792081;29;45643;-83
2024/03/11 12:52:14;;;;;;;;;0.00;0.00;;;;;17.59;100.00;100406.56;4795892;29;46271;-84
2024/03/11 12:54:39;;;;;;;;;0.00;0.00;;;;;17.48;100.00;100399.34;4796431;29;45493;-84
2024/03/11 12:57:17;;;;;;;;;0.00;0.00;;;;;17.56;100.00;100409.38;4810131;29;45488;-85
2024/03/11 12:59:45;;;;;;;;;0.00;0.00;;;;;17.68;100.00;100399.84;4824556;29;45464;-82
2024/03/11 13:02:20;;;;;;;;;0.00;0.00;;;;;17.85;100.00;100404.91;4808280;29;45926;-83
2024/03/11 13:04:48;;;;;;;;;0.00;0.00;;;;;17.80;100.00;100404.31;4818700;29;45640;-83
2024/03/11 13:07:14;;;;;;;;;0.00;0.00;;;;;17.69;100.00;100412.91;4825345;29;45495;-84
2024/03/11 13:09:41;;;;;;;;;0.00;0.00;;;;;17.82;100.00;100417.41;4825034;29;45291;-83
2024/03/11 13:12:16;;;;;;;;;0.00;0.00;;;;;17.44;100.00;100407.50;4824716;29;46640;-83
2024/03/11 13:14:46;;;;;;;;;0.00;0.00;;;;;17.23;100.00;100423.69;4824852;29;45409;-84
2024/03/11 13:17:15;;;;;;;;;0.00;0.00;;;;;17.09;100.00;100421.91;4825247;29;45408;-84
2024/03/11 13:19:41;;;;;;;;;0.00;0.00;;;;;17.06;100.00;100421.25;4799199;29;45379;-83
2024/03/11 13:22:19;;;;;;;;;0.00;0.00;;;;;17.06;100.00;100424.72;4800488;29;46171;-84
2024/03/11 13:24:47;;;;;;;;;0.00;0.00;;;;;17.23;100.00;100426.31;4824392;29;45288;-84
2024/03/11 13:27:13;;;;;;;;;0.00;0.00;;;;;17.49;100.00;100414.16;4824790;29;45467;-84
2024/03/11 13:29:42;;;;;;;;;0.00;0.00;;;;;18.02;100.00;100418.78;4808179;29;45364;-84
2024/03/11 13:32:08;;;;;;;;;0.00;0.00;;;;;18.55;100.00;100420.50;4808298;29;46945;-84
2024/03/11 13:34:39;;;;;;;;;0.00;0.00;;;;;19.13;100.00;100435.94;4808096;29;45659;-84
2024/03/11 13:37:05;;;;;;;;;0.00;0.00;;;;;19.52;100.00;100429.63;4792922;29;45595;-83
2024/03/11 13:39:38;;;;;;;;;0.00;0.00;;;;;19.94;100.00;100431.13;4824671;29;45424;-83
2024/03/11 13:42:05;;;;;;;;;0.00;0.00;;;;;19.98;100.00;100430.75;4808525;29;45885;-84
2024/03/11 13:44:33;;;;;;;;;0.00;0.00;;;;;19.74;100.00;100428.09;4823457;29;45516;-84
2024/03/11 13:47:00;;;;;;;;;0.00;0.00;;;;;19.40;100.00;100433.13;4816550;29;45360;-83
2024/03/11 13:49:34;;;;;;;;;0.00;0.00;;;;;19.12;100.00;100437.72;4813188;29;45289;-85
2024/03/11 13:52:00;;;;;;;;;0.00;0.00;;;;;18.85;100.00;100439.59;4791540;29;45420;-84
2024/03/11 13:54:28;;;;;;;;;0.00;0.00;;;;;18.68;100.00;100441.56;4805465;29;45389;-84
2024/03/11 13:57:00;;;;;;;;;0.00;0.00;;;;;18.69;100.00;100439.78;4814832;29;45422;-84
2024/03/11 13:59:25;;;;;;;;;0.00;0.00;;;;;18.44;100.00;100441.41;4824314;29;45314;-83
2024/03/11 14:01:52;;;;;;;;;0.00;0.00;;;;;18.17;100.00;100459.91;4807812;29;47316;-84
2024/03/11 14:04:18;;;;;;;;;0.00;0.00;;;;;18.02;100.00;100445.09;4824296;29;45478;-83
2024/03/11 14:06:43;;;;;;;;;0.00;0.00;;;;;17.85;100.00;100460.19;4809051;29;45468;-84
2024/03/11 14:09:16;;;;;;;;;0.00;0.00;;;;;17.59;100.00;100457.38;4805553;29;45491;-84
2024/03/11 14:11:42;;;;;;;;;0.00;0.00;;;;;17.55;100.00;100452.41;4789229;29;46548;-84
2024/03/11 14:14:08;;;;;;;;;0.00;0.00;;;;;17.72;100.00;100454.84;4789684;29;45391;-83
2024/03/11 14:16:37;;;;;;;;;1.00;0.00;;;;;17.73;100.00;100459.13;4811594;29;45475;-83
2024/03/11 14:19:06;;;;;;;;;0.00;0.00;;;;;17.79;100.00;100457.91;4824203;29;45372;-84
2024/03/11 14:21:31;;;;;;;;;0.00;0.00;;;;;17.78;100.00;100477.28;4821660;29;46219;-83
2024/03/11 14:23:56;;;;;;;;;0.00;0.00;;;;;17.85;100.00;100477.75;4822989;29;56693;-83
2024/03/11 14:26:27;;;;;;;;;0.00;0.00;;;;;17.60;100.00;100489.81;4823775;29;56176;-84
2024/03/11 14:28:58;;;;;;;;;0.00;0.00;;;;;17.59;100.00;100491.59;4822505;29;45387;-86
2024/03/11 14:31:25;;;;;;;;;0.00;0.00;;;;;17.49;100.00;100502.78;4807314;29;47544;-84
2024/03/11 14:33:54;;;;;;;;;0.00;0.00;;;;;17.26;100.00;100498.94;4802175;29;45510;-84
2024/03/11 14:36:19;;;;;;;;;0.00;0.00;;;;;16.94;100.00;100520.97;4821322;29;45737;-85
2024/03/11 14:38:46;;;;;;;;;0.00;0.00;;;;;16.78;100.00;100528.03;4823820;29;45312;-84
2024/03/11 14:41:15;;;;;;;;;0.00;0.00;;;;;16.65;100.00;100518.22;4807253;29;46980;-84
2024/03/11 14:43:43;;;;;;;;;0.00;0.00;;;;;16.54;100.00;100522.41;4803280;29;45546;-85
2024/03/11 14:46:10;;;;;;;;;0.00;0.00;;;;;16.34;100.00;100534.88;4792500;29;45434;-83
2024/03/11 14:48:36;;;;;;;;;0.00;0.00;;;;;16.32;100.00;100536.75;4823866;29;45575;-83
2024/03/11 14:51:03;;;;;;;;;0.00;0.00;;;;;16.25;100.00;100540.63;4805459;29;47292;-83
2024/03/11 14:53:32;;;;;;;;;0.00;0.00;;;;;16.17;100.00;100535.81;4807207;29;45541;-84
2024/03/11 14:55:58;;;;;;;;;0.00;0.00;;;;;16.14;100.00;100541.25;4799275;29;45390;-83
2024/03/11 14:58:27;;;;;;;;;0.00;0.00;;;;;16.12;100.00;100547.50;4791711;29;45324;-84
2024/03/11 15:00:57;;;;;;;;;0.00;0.00;;;;;16.14;100.00;100545.63;4823657;29;47105;-83
2024/03/11 15:03:24;;;;;;;;;0.00;0.00;;;;;16.21;100.00;100552.25;4823467;29;45311;-83
2024/03/11 15:06:03;;;;;;;;;0.00;0.00;;;;;16.24;100.00;100555.56;4808530;29;45708;-85
2024/03/11 15:08:28;;;;;;;;;0.00;0.00;;;;;16.28;100.00;100558.84;4809730;29;45419;-83
2024/03/11 15:10:57;;;;;;;;;0.00;0.00;;;;;16.14;100.00;100551.75;4809646;29;63734;-86
2024/03/11 15:13:23;;;;;;;;;0.00;0.00;;;;;16.20;100.00;100566.34;4794948;29;48812;-83
2024/03/11 15:15:50;;;;;;;;;0.00;0.00;;;;;16.25;100.00;100572.16;4805365;29;45423;-84
2024/03/11 15:18:17;;;;;;;;;0.00;0.00;;;;;16.24;100.00;100566.06;4793380;29;45342;-83
2024/03/11 15:20:48;;;;;;;;;0.00;0.00;;;;;16.21;100.00;100582.00;4808535;29;46312;-83
2024/03/11 15:23:30;;;;;;;;;0.00;0.00;;;;;16.12;100.00;100579.88;4808156;29;45304;-85
2024/03/11 15:25:58;;;;;;;;;0.00;0.00;;;;;16.11;100.00;100588.69;4821788;29;45409;-82
2024/03/11 15:28:24;;;;;;;;;0.00;0.00;;;;;16.10;100.00;100591.38;4809734;29;45459;-83